Time;durP1;ratioP1;P1;durP2;ratioP2;P2;SDS_P1;SDS_P2;PMS_P1;PMS_P2;Temp;Humidity;BMP_temperature;BMP_pressure;BME280_temperature;BME280_humidity;BME280_pressure;Samples;Min_cycle;Max_cycle;Signal;HPM_P1;HPM_P2
2022/08/13 00:00:39;;;;;;;3.03;2.30;;;25.10;39.40;;;27.73;31.93;101829.78;5033485;28;20193;-62
2022/08/13 00:03:15;;;;;;;3.23;2.90;;;25.10;39.60;;;27.70;31.99;101827.59;5033196;28;20218;-62
2022/08/13 00:06:08;;;;;;;6.00;2.73;;;25.00;39.80;;;27.67;32.10;101827.31;5063604;28;20557;-61
2022/08/13 00:08:48;;;;;;;3.07;2.37;;;25.00;40.00;;;27.65;32.07;101824.84;5073052;28;20537;-63
2022/08/13 00:12:56;;;;;;;3.00;2.70;;;25.00;40.00;;;27.64;32.29;101823.25;5072922;28;20223;-63
2022/08/13 00:14:29;;;;;;;4.03;3.67;;;24.90;40.10;;;27.58;32.11;101821.56;5073097;28;20206;-62
2022/08/13 00:17:03;;;;;;;9.20;6.87;;;24.90;40.10;;;27.56;32.05;101821.03;5058444;28;20206;-63
2022/08/13 00:19:32;;;;;;;4.03;3.60;;;24.90;40.30;;;27.52;31.85;101826.16;5053233;28;20209;-63
2022/08/13 00:21:59;;;;;;;4.10;3.17;;;24.90;41.10;;;27.50;32.15;101827.47;5052620;28;20690;-63
2022/08/13 00:24:47;;;;;;;3.17;2.87;;;24.90;40.70;;;27.44;32.46;101828.50;5072970;28;20192;-63
2022/08/13 00:27:21;;;;;;;7.83;6.20;;;24.80;40.70;;;27.40;32.52;101825.53;5072863;28;20185;-62
2022/08/13 00:29:53;;;;;;;5.33;4.90;;;24.70;40.90;;;27.38;32.61;101829.56;5073375;28;20264;-63
2022/08/13 00:32:29;;;;;;;6.07;4.00;;;24.70;41.00;;;27.35;32.50;101830.03;5077106;28;20209;-63
2022/08/13 00:35:07;;;;;;;4.83;3.40;;;24.70;41.10;;;27.30;32.48;101822.69;5068734;28;20267;-62
2022/08/13 00:37:52;;;;;;;5.60;3.30;;;24.60;41.40;;;27.27;33.19;101828.63;5057281;28;20701;-62
2022/08/13 00:40:20;;;;;;;3.17;2.87;;;24.60;41.40;;;27.25;32.68;101825.34;5056883;28;20190;-63
2022/08/13 00:43:02;;;;;;;2.93;2.23;;;24.60;41.50;;;27.22;32.99;101828.56;5056831;28;20238;-63
2022/08/13 00:45:33;;;;;;;2.57;2.37;;;24.60;41.50;;;27.19;33.23;101828.28;5056670;28;20599;-61
2022/08/13 00:50:56;;;;;;;5.13;2.80;;;24.40;41.80;;;27.07;33.57;101816.81;5056273;28;20567;-62
2022/08/13 00:53:30;;;;;;;4.00;2.40;;;24.40;42.00;;;27.04;33.13;101817.34;5056797;28;20536;-62
2022/08/13 00:56:12;;;;;;;3.07;2.80;;;24.40;42.30;;;27.00;33.19;101810.81;5056621;28;20193;-61
2022/08/13 00:58:44;;;;;;;2.70;2.50;;;24.30;42.20;;;26.97;33.69;101814.84;5056856;28;20237;-60
2022/08/13 01:01:13;;;;;;;3.27;3.00;;;24.30;42.30;;;26.93;33.85;101812.91;5055992;28;20647;-62
2022/08/13 01:03:44;;;;;;;2.73;2.53;;;24.30;42.50;;;26.90;33.89;101810.72;5056673;28;20720;-62
2022/08/13 01:06:33;;;;;;;4.27;2.70;;;24.20;42.50;;;26.86;33.49;101807.72;5076208;28;20247;-63
2022/08/13 01:09:02;;;;;;;3.30;2.33;;;24.20;42.70;;;26.83;33.61;101809.06;5063109;28;20190;-63
2022/08/13 01:11:32;;;;;;;5.27;2.80;;;24.20;42.70;;;26.81;34.07;101819.28;5056522;28;20213;-62
2022/08/13 01:14:07;;;;;;;4.03;2.73;;;24.20;42.90;;;26.78;33.72;101817.13;5076063;28;20195;-63
2022/08/13 01:16:38;;;;;;;3.73;2.73;;;24.10;42.90;;;26.75;33.59;101820.31;5076000;28;20351;-63
2022/08/13 01:19:08;;;;;;;3.17;2.87;;;24.10;43.10;;;26.73;33.63;101819.72;5076331;28;20241;-62
2022/08/13 01:21:40;;;;;;;3.80;2.53;;;24.00;43.10;;;26.69;33.97;101815.91;5075174;28;20209;-62
2022/08/13 01:24:12;;;;;;;3.30;2.30;;;24.00;43.30;;;26.66;34.55;101821.81;5060658;28;20219;-62
2022/08/13 01:26:41;;;;;;;2.60;2.40;;;24.00;43.40;;;26.62;34.71;101820.72;5055568;28;20178;-62
2022/08/13 01:29:16;;;;;;;4.60;2.70;;;23.90;43.50;;;26.59;34.14;101815.81;5056052;28;20280;-62
2022/08/13 01:31:44;;;;;;;3.97;2.63;;;23.90;43.50;;;26.58;34.35;101819.56;5055518;28;20316;-62
2022/08/13 01:34:17;;;;;;;3.93;2.83;;;23.90;43.70;;;26.55;34.84;101820.09;5055835;28;20655;-61
2022/08/13 01:36:53;;;;;;;2.53;2.33;;;23.90;43.80;;;26.53;34.34;101816.81;5055769;28;20185;-62
2022/08/13 01:39:24;;;;;;;2.70;2.27;;;23.80;43.90;;;26.53;35.00;101821.41;5055834;28;20261;-62
2022/08/13 01:41:56;;;;;;;3.97;2.53;;;23.90;44.10;;;26.53;34.85;101818.72;5054395;28;20217;-63
2022/08/13 01:44:25;;;;;;;4.43;2.47;;;23.90;44.00;;;26.50;34.45;101816.50;5056154;28;20722;-63
2022/08/13 01:53:03;;;;;;;3.90;2.60;;;23.80;44.20;;;26.33;34.98;101819.28;5055599;28;20210;-63
2022/08/13 01:55:39;;;;;;;2.70;2.50;;;23.70;44.20;;;26.31;35.25;101820.59;5055620;28;20272;-63
2022/08/13 01:58:29;;;;;;;2.67;2.40;;;23.70;44.30;;;26.28;35.45;101824.63;5055795;28;20198;-63
2022/08/13 02:01:03;;;;;;;3.97;2.67;;;23.70;44.50;;;26.25;34.74;101819.72;5055392;28;20534;-63
2022/08/13 02:03:37;;;;;;;2.60;2.33;;;23.60;44.50;;;26.24;35.01;101822.69;5055519;28;20221;-61
2022/08/13 02:06:11;;;;;;;3.57;2.50;;;23.60;44.70;;;26.23;35.34;101819.16;5071269;28;20204;-62
2022/08/13 02:08:59;;;;;;;2.53;2.33;;;23.60;44.60;;;26.20;35.49;101823.19;5071975;28;20268;-63
2022/08/13 02:11:28;;;;;;;3.00;2.30;;;23.60;44.90;;;26.22;35.14;101814.81;5074856;28;20344;-63
2022/08/13 02:13:59;;;;;;;3.80;1.87;;;23.60;44.90;;;26.21;34.97;101818.59;5075195;28;20611;-63
2022/08/13 02:16:30;;;;;;;5.07;2.50;;;23.50;44.80;;;26.19;35.76;101820.75;5074978;28;20690;-63
2022/08/13 02:18:59;;;;;;;2.57;2.37;;;23.50;45.00;;;26.17;35.72;101812.88;5074866;28;20747;-62
2022/08/13 02:21:31;;;;;;;3.17;2.40;;;23.50;45.20;;;26.14;35.81;101817.97;5074719;28;20263;-62
2022/08/13 02:24:13;;;;;;;8.60;3.13;;;23.50;45.20;;;26.08;35.55;101817.06;5060983;28;20263;-62
2022/08/13 02:26:48;;;;;;;3.43;2.43;;;23.50;45.30;;;26.05;35.94;101814.06;5054662;28;20194;-62
2022/08/13 02:29:22;;;;;;;4.47;2.97;;;23.40;45.40;;;26.00;36.21;101822.91;5054795;28;20174;-61
2022/08/13 02:31:52;;;;;;;2.90;2.70;;;23.30;45.40;;;25.98;35.53;101824.22;5054090;28;20217;-62
2022/08/13 02:34:32;;;;;;;4.20;2.80;;;23.30;45.40;;;25.94;36.18;101823.06;5070355;28;20202;-62
2022/08/13 02:37:04;;;;;;;3.07;2.47;;;23.30;45.70;;;25.94;36.27;101823.06;5054880;28;20224;-63
2022/08/13 02:39:53;;;;;;;2.73;2.47;;;23.30;45.60;;;25.90;35.56;101824.63;5054405;28;20202;-63
2022/08/13 02:42:23;;;;;;;2.57;2.33;;;23.20;45.50;;;25.85;35.96;101825.38;5054183;28;20288;-63
2022/08/13 02:44:51;;;;;;;2.43;2.20;;;23.20;45.70;;;25.82;35.74;101820.47;5054401;28;20639;-63
2022/08/13 02:47:21;;;;;;;5.90;2.43;;;23.20;45.60;;;25.80;35.68;101835.28;5054594;28;20182;-63
2022/08/13 02:50:08;;;;;;;2.63;2.30;;;23.20;45.80;;;25.76;36.34;101826.06;5054522;28;20190;-63
2022/08/13 02:52:40;;;;;;;3.20;2.90;;;23.10;45.70;;;25.74;36.44;101839.00;5053913;28;20213;-63
2022/08/13 02:55:29;;;;;;;3.33;2.73;;;23.10;45.90;;;25.70;36.01;101832.47;5054513;28;20197;-62
2022/08/13 02:58:02;;;;;;;4.73;2.43;;;23.00;45.80;;;25.68;36.17;101829.16;5054139;28;20543;-62
2022/08/13 03:00:31;;;;;;;3.50;2.40;;;23.00;45.90;;;25.66;36.40;101820.50;5053479;28;20210;-62
2022/08/13 03:03:02;;;;;;;3.20;2.70;;;23.00;46.00;;;25.62;36.32;101827.47;5054045;28;20210;-63
2022/08/13 03:05:37;;;;;;;4.50;2.70;;;22.90;46.10;;;25.60;35.95;101829.59;5065475;28;20287;-60
2022/08/13 03:08:27;;;;;;;4.50;2.83;;;22.90;46.20;;;25.54;36.32;101829.53;5074099;28;20189;-61
2022/08/13 03:11:10;;;;;;;3.17;2.60;;;22.80;46.40;;;25.53;36.42;101822.47;5073718;28;20190;-62
2022/08/13 03:13:47;;;;;;;3.30;2.60;;;22.80;46.60;;;25.52;36.72;101825.44;5074089;28;20212;-62
2022/08/13 03:16:23;;;;;;;4.23;3.30;;;22.80;46.60;;;25.51;36.46;101821.91;5073982;28;20196;-62
2022/08/13 03:18:57;;;;;;;3.47;2.77;;;22.80;46.90;;;25.52;36.29;101826.25;5073738;28;20177;-62
2022/08/13 03:21:32;;;;;;;2.50;2.23;;;22.80;46.60;;;25.52;36.52;101823.56;5073524;28;20209;-62
2022/08/13 03:24:13;;;;;;;4.13;2.83;;;22.80;46.60;;;25.51;36.30;101823.78;5058820;28;20197;-62
2022/08/13 03:26:57;;;;;;;4.03;2.57;;;22.80;46.70;;;25.49;36.77;101832.13;5053604;28;20190;-62
2022/08/13 03:29:24;;;;;;;2.53;2.33;;;22.80;47.40;;;25.52;36.74;101831.66;5053900;28;20296;-62
2022/08/13 03:32:13;;;;;;;3.30;2.83;;;22.80;46.70;;;25.51;36.47;101826.50;5053421;28;20220;-62
2022/08/13 03:34:42;;;;;;;4.53;2.60;;;22.80;46.70;;;25.49;36.27;101826.75;5053678;28;20190;-62
2022/08/13 03:37:10;;;;;;;4.43;2.50;;;22.80;46.70;;;25.49;36.40;101832.13;5053638;28;20201;-62
2022/08/13 03:39:41;;;;;;;3.13;2.93;;;22.80;46.70;;;25.50;36.73;101828.41;5053268;28;20216;-62
2022/08/13 03:42:10;;;;;;;8.13;2.53;;;22.80;46.80;;;25.49;36.42;101824.06;5053343;28;20300;-61
2022/08/13 03:44:45;;;;;;;3.00;2.80;;;22.80;46.70;;;25.48;36.21;101819.72;5053655;28;20204;-61
2022/08/13 03:47:13;;;;;;;2.80;2.60;;;22.80;46.60;;;25.48;36.39;101819.72;5053271;28;20197;-61
2022/08/13 03:49:59;;;;;;;3.87;2.30;;;22.80;46.50;;;25.46;36.22;101816.44;5053332;28;20189;-61
2022/08/13 03:52:27;;;;;;;4.90;2.73;;;22.80;46.60;;;25.44;36.53;101815.88;5052964;28;20227;-61
2022/08/13 03:55:18;;;;;;;4.33;2.77;;;22.80;46.60;;;25.42;36.33;101815.28;5053402;28;20185;-61
2022/08/13 03:57:48;;;;;;;5.67;2.60;;;22.70;46.60;;;25.43;36.54;101814.22;5053170;28;20666;-61
2022/08/13 04:00:33;;;;;;;3.90;2.70;;;22.70;46.70;;;25.42;36.53;101812.59;5052397;28;20271;-62
2022/08/13 04:03:13;;;;;;;3.43;2.67;;;22.70;46.70;;;25.39;36.82;101814.94;5052994;28;20218;-62
2022/08/13 04:05:42;;;;;;;2.73;2.47;;;22.70;47.00;;;25.42;36.64;101815.28;5064950;28;20687;-62
2022/08/13 04:08:26;;;;;;;2.43;2.20;;;22.70;47.10;;;25.43;36.85;101814.22;5064481;28;20697;-62
2022/08/13 04:10:56;;;;;;;3.70;2.70;;;22.70;47.00;;;25.43;36.89;101808.84;5052964;28;20273;-62
2022/08/13 04:13:28;;;;;;;3.63;2.80;;;22.70;47.00;;;25.44;36.95;101807.78;5053034;28;20695;-61
2022/08/13 04:16:20;;;;;;;6.23;2.97;;;22.80;47.40;;;25.43;36.99;101808.84;5052836;28;20196;-61
2022/08/13 04:18:58;;;;;;;4.33;2.90;;;22.70;47.40;;;25.42;37.32;101812.59;5053439;28;20202;-63
2022/08/13 04:21:31;;;;;;;3.50;2.77;;;22.70;47.60;;;25.39;37.04;101806.84;5053984;28;20229;-63
2022/08/13 04:24:02;;;;;;;6.93;3.17;;;22.70;47.70;;;25.33;37.10;101800.59;5052888;28;20557;-62
2022/08/13 04:26:31;;;;;;;4.37;3.43;;;22.70;47.70;;;25.31;37.15;101807.28;5053123;28;20190;-62
2022/08/13 04:29:04;;;;;;;3.97;2.90;;;22.60;48.00;;;25.29;37.52;101804.81;5053037;28;20182;-62
2022/08/13 04:31:35;;;;;;;3.27;2.37;;;22.60;48.00;;;25.26;37.52;101799.13;5052453;28;20259;-62
2022/08/13 04:34:15;;;;;;;2.80;2.50;;;22.60;48.30;;;25.23;38.06;101800.41;5053182;28;20205;-62
2022/08/13 04:37:04;;;;;;;4.07;2.67;;;22.50;48.30;;;25.22;38.10;101797.97;5052884;28;20194;-62
2022/08/13 04:39:32;;;;;;;3.90;2.60;;;22.50;48.50;;;25.23;37.88;101804.97;5052829;28;20202;-62
2022/08/13 04:42:20;;;;;;;5.33;2.80;;;22.50;48.50;;;25.20;37.51;101802.81;5052306;28;20213;-63
2022/08/13 04:45:08;;;;;;;3.20;2.73;;;22.50;48.60;;;25.18;37.80;101807.59;5052842;28;20189;-62
2022/08/13 04:47:40;;;;;;;3.73;2.60;;;22.50;48.70;;;25.20;37.77;101800.91;5052796;28;20680;-62
2022/08/13 04:50:09;;;;;;;2.53;2.33;;;22.50;48.90;;;25.22;37.94;101801.47;5052523;28;20250;-62
2022/08/13 04:52:38;;;;;;;4.60;2.83;;;22.50;48.90;;;25.23;37.63;101794.22;5052604;28;20687;-63
2022/08/13 04:55:09;;;;;;;3.53;3.13;;;22.50;48.90;;;25.24;37.99;101802.06;5052787;28;20236;-62
2022/08/13 04:57:41;;;;;;;2.87;2.60;;;22.50;49.00;;;25.26;38.50;101804.50;5052590;28;20289;-62
2022/08/13 05:00:33;;;;;;;3.10;2.80;;;22.50;49.20;;;25.23;38.47;101800.41;5051988;28;20208;-62
2022/08/13 05:03:12;;;;;;;3.23;2.57;;;22.50;49.30;;;25.23;38.41;101795.03;5052545;28;20682;-62
2022/08/13 05:05:40;;;;;;;4.33;2.97;;;22.50;49.50;;;25.26;38.83;101805.31;5064569;28;20193;-61
2022/08/13 05:08:11;;;;;;;3.60;2.50;;;22.50;49.70;;;25.25;38.45;101803.69;5072562;28;20642;-61
2022/08/13 05:10:39;;;;;;;2.80;2.60;;;22.50;49.60;;;25.29;38.63;101809.41;5072195;28;20181;-63
2022/08/13 05:13:27;;;;;;;3.93;3.10;;;22.60;49.70;;;25.28;38.72;101810.47;5072742;28;20643;-62
2022/08/13 05:15:59;;;;;;;3.17;2.80;;;22.60;49.80;;;25.34;38.84;101801.41;5067325;28;20277;-62
2022/08/13 05:18:32;;;;;;;3.87;2.60;;;22.60;49.80;;;25.38;38.00;101803.38;5055306;28;20193;-62
2022/08/13 05:21:03;;;;;;;3.37;2.93;;;22.60;49.60;;;25.42;38.03;101803.66;5056190;28;20213;-61
2022/08/13 05:23:34;;;;;;;2.80;2.60;;;22.70;49.80;;;25.46;37.97;101805.66;5065427;28;20201;-62
2022/08/13 05:26:24;;;;;;;3.33;2.63;;;22.70;49.80;;;25.48;38.66;101798.13;5076030;28;20192;-62
2022/08/13 05:29:05;;;;;;;3.47;2.70;;;22.70;49.60;;;25.54;38.04;101801.72;5075946;28;20205;-61
2022/08/13 05:31:35;;;;;;;3.17;2.80;;;22.80;49.80;;;25.61;38.22;101804.25;5075496;28;20228;-62
2022/08/13 05:34:24;;;;;;;3.27;2.67;;;22.80;49.80;;;25.69;38.39;101804.66;5076072;28;20180;-60
2022/08/13 05:36:53;;;;;;;3.23;2.60;;;22.90;49.80;;;25.77;38.02;101811.53;5075648;28;20224;-62
2022/08/13 05:39:42;;;;;;;3.37;3.07;;;22.90;49.60;;;25.84;37.74;101812.16;5075887;28;20549;-62
2022/08/13 05:42:20;;;;;;;2.90;2.40;;;23.00;49.70;;;25.86;37.99;101810.03;5075445;28;20212;-62
2022/08/13 05:44:56;;;;;;;3.10;2.90;;;23.10;49.50;;;25.90;38.08;101811.16;5075670;28;20197;-62
2022/08/13 05:47:26;;;;;;;2.63;2.23;;;23.10;49.50;;;25.96;37.72;101812.88;5055573;28;20263;-62
2022/08/13 05:49:54;;;;;;;2.57;2.37;;;23.20;49.30;;;26.03;37.87;101805.41;5055329;28;20252;-62
2022/08/13 05:52:27;;;;;;;3.07;2.77;;;23.20;49.20;;;26.08;38.08;101810.84;5055426;28;20210;-62
2022/08/13 05:55:05;;;;;;;3.73;3.10;;;23.30;49.20;;;26.14;37.34;101804.47;5055414;28;20220;-62
2022/08/13 05:57:53;;;;;;;4.47;2.50;;;23.30;49.30;;;26.19;37.19;101805.38;5054842;28;20202;-62
2022/08/13 06:03:24;;;;;;;2.30;2.10;;;23.40;48.80;;;26.28;37.02;101803.03;5055420;28;20237;-62
2022/08/13 06:06:15;;;;;;;3.53;3.30;;;23.50;48.60;;;26.34;37.39;101807.41;5071476;28;20251;-62
2022/08/13 06:08:59;;;;;;;2.60;2.40;;;23.60;48.40;;;26.42;36.45;101804.25;5074877;28;20193;-62
2022/08/13 06:11:30;;;;;;;2.50;2.33;;;23.60;48.30;;;26.48;36.64;101792.44;5074855;28;20219;-62
2022/08/13 06:14:23;;;;;;;6.20;2.63;;;23.70;48.20;;;26.53;36.89;101792.50;5035135;28;20202;-62
2022/08/13 06:17:00;;;;;;;2.50;2.30;;;23.70;48.00;;;26.57;36.61;101788.22;5035166;28;20682;-61
2022/08/13 06:19:34;;;;;;;2.50;2.30;;;23.80;48.00;;;26.65;36.77;101793.16;5034779;28;20277;-62
2022/08/13 06:22:04;;;;;;;3.97;2.23;;;23.80;47.90;;;26.73;35.89;101795.41;5034391;28;20223;-63
2022/08/13 06:24:37;;;;;;;3.20;2.47;;;23.90;47.80;;;26.82;35.88;101799.31;5071659;28;20217;-62
2022/08/13 06:27:19;;;;;;;3.47;2.93;;;24.00;47.70;;;26.93;36.10;101794.81;5074664;28;20185;-62
2022/08/13 06:30:09;;;;;;;6.67;2.60;;;24.00;47.60;;;27.05;35.74;101797.34;5074681;28;20211;-62
2022/08/13 06:32:37;;;;;;;3.70;2.77;;;24.10;47.70;;;27.14;36.24;101802.03;5074516;28;20221;-62
2022/08/13 06:35:26;;;;;;;2.83;2.37;;;24.20;47.70;;;27.23;36.19;101794.25;5074672;28;20185;-64
2022/08/13 06:38:06;;;;;;;2.93;2.40;;;24.30;47.60;;;27.34;36.02;101798.63;5074873;28;20264;-63
2022/08/13 06:40:35;;;;;;;3.40;2.73;;;24.40;47.50;;;27.44;35.35;101796.88;5090188;28;20710;-63
2022/08/13 06:43:11;;;;;;;2.50;2.30;;;24.50;47.30;;;27.55;35.04;101797.75;5074681;28;20213;-63
2022/08/13 06:45:42;;;;;;;4.63;2.73;;;24.60;47.10;;;27.64;35.05;101796.19;5067587;28;20197;-63
2022/08/13 06:48:14;;;;;;;2.40;2.20;;;24.70;46.70;;;27.72;35.08;101798.38;5054460;28;20632;-62
2022/08/13 06:50:45;;;;;;;3.03;2.73;;;24.70;46.40;;;27.81;34.45;101802.25;5053979;28;20209;-63
2022/08/13 06:53:14;;;;;;;3.90;3.40;;;24.80;46.20;;;27.91;34.47;101802.28;5054056;28;20221;-62
2022/08/13 06:56:05;;;;;;;12.27;10.20;;;24.90;46.00;;;27.99;34.62;101804.53;5054431;28;20255;-62
2022/08/13 06:58:58;;;;;;;4.27;3.63;;;25.10;45.80;;;28.07;33.96;101812.16;5054307;28;20201;-62
2022/08/13 07:01:27;;;;;;;2.80;2.60;;;25.10;45.30;;;28.17;34.23;101812.16;5053963;28;20691;-62
2022/08/13 07:04:21;;;;;;;4.27;2.90;;;25.20;45.20;;;28.26;33.52;101807.06;5054573;28;20190;-62
2022/08/13 07:06:58;;;;;;;5.90;2.80;;;25.40;45.50;;;28.35;33.69;101818.19;5074400;28;20193;-63
2022/08/13 07:09:27;;;;;;;4.87;2.63;;;25.40;44.40;;;28.43;33.57;101814.97;5056343;28;20197;-62
2022/08/13 07:12:12;;;;;;;3.67;2.30;;;25.50;44.50;;;28.55;33.19;101823.69;5053677;28;20221;-62
2022/08/13 07:14:43;;;;;;;3.20;2.47;;;25.60;44.40;;;28.64;32.91;101812.09;5054420;28;20178;-63
2022/08/13 07:17:28;;;;;;;4.20;2.30;;;25.70;43.70;;;28.73;33.13;101813.19;5053745;28;20190;-64
2022/08/13 07:20:03;;;;;;;5.43;2.40;;;25.80;43.80;;;28.82;33.06;101818.88;5054229;28;20189;-63
2022/08/13 07:22:36;;;;;;;2.47;2.27;;;26.00;43.50;;;28.92;32.65;101816.19;5053922;28;20301;-62
2022/08/13 07:25:26;;;;;;;2.53;2.33;;;26.00;43.40;;;29.03;32.64;101815.09;5054052;28;20258;-63
2022/08/13 07:28:18;;;;;;;2.97;2.30;;;26.10;43.20;;;29.13;32.68;101812.38;5053910;28;20202;-63
2022/08/13 07:31:07;;;;;;;2.33;2.23;;;26.30;42.90;;;29.25;32.30;101818.38;5053773;28;20658;-63
2022/08/13 07:33:42;;;;;;;2.00;1.80;;;26.40;42.40;;;29.34;31.81;101805.88;5053784;28;20252;-62
2022/08/13 07:36:24;;;;;;;4.77;2.20;;;26.50;42.30;;;29.48;32.26;101811.56;5053839;28;20186;-63
2022/08/13 07:38:54;;;;;;;2.60;2.40;;;26.60;42.30;;;29.62;32.11;101811.81;5054018;28;20190;-62
2022/08/13 07:41:22;;;;;;;4.03;2.27;;;26.70;42.20;;;29.74;31.79;101809.63;5053943;28;20217;-62
2022/08/13 07:43:51;;;;;;;2.93;2.30;;;26.80;42.20;;;29.91;31.47;101816.38;5054610;28;20194;-62
2022/08/13 07:46:42;;;;;;;2.60;2.40;;;26.90;42.10;;;30.57;31.42;101808.75;5053456;28;20573;-63
2022/08/13 07:49:19;;;;;;;3.57;1.83;;;27.10;42.20;;;31.67;29.90;101817.09;5052721;28;20193;-63
2022/08/13 07:51:48;;;;;;;2.10;2.00;;;27.50;42.50;;;32.87;28.64;101813.13;5053766;28;20236;-63
2022/08/13 07:54:19;;;;;;;3.87;2.47;;;28.10;42.00;;;34.17;27.56;101809.09;5053465;28;20189;-63
2022/08/13 07:56:49;;;;;;;2.97;1.80;;;28.80;41.00;;;35.43;25.72;101809.63;5053357;28;20201;-62
2022/08/13 07:59:22;;;;;;;3.00;2.00;;;29.60;39.70;;;36.75;25.27;101818.38;5053158;28;20189;-64
2022/08/13 08:02:12;;;;;;;2.00;1.90;;;30.50;38.80;;;38.14;23.49;101820.38;5053310;28;20296;-63
2022/08/13 08:04:52;;;;;;;2.80;2.43;;;31.50;36.90;;;39.29;21.93;101817.63;5058179;28;20279;-63
2022/08/13 08:07:21;;;;;;;2.30;2.10;;;32.50;35.00;;;40.30;21.47;101811.06;5072793;28;20184;-62
2022/08/13 08:09:52;;;;;;;3.28;3.08;;;33.30;33.60;;;41.22;19.51;101817.25;5056466;28;20206;-63
2022/08/13 08:12:35;;;;;;;3.10;2.80;;;34.20;31.10;;;41.93;18.63;101813.50;5053373;28;20239;-62
2022/08/13 08:15:23;;;;;;;2.60;2.40;;;35.00;28.90;;;42.81;17.79;101809.06;5052999;28;20579;-62
2022/08/13 08:18:11;;;;;;;3.05;2.55;;;35.80;28.30;;;43.68;17.40;101820.97;5053046;28;20174;-63
2022/08/13 08:20:44;;;;;;;3.95;3.65;;;36.50;27.80;;;44.31;16.26;101814.75;5052817;28;20241;-61
2022/08/13 08:23:26;;;;;;;3.30;3.00;;;37.20;26.60;;;44.91;15.47;101815.47;5052796;28;20559;-63
2022/08/13 08:26:17;;;;;;;2.70;2.50;;;37.90;25.20;;;45.43;15.31;101815.16;5052971;28;20193;-64
2022/08/13 08:28:46;;;;;;;3.17;2.40;;;38.50;24.30;;;45.81;14.82;101819.47;5053219;28;20200;-63
2022/08/13 08:31:17;;;;;;;3.08;2.70;;;38.90;23.70;;;46.18;13.73;101822.88;5052856;28;20610;-63
2022/08/13 08:33:57;;;;;;;2.42;2.33;;;39.40;22.90;;;46.43;13.52;101822.22;5052397;28;20189;-64
2022/08/13 08:36:28;;;;;;;2.08;1.98;;;39.80;22.30;;;46.44;13.33;101823.78;5053057;28;20649;-63
2022/08/13 08:45:03;;;;;;;2.60;2.40;;;40.70;21.90;;;47.72;13.08;101822.78;5071403;28;20181;-64
2022/08/13 08:47:40;;;;;;;3.17;2.33;;;41.00;21.70;;;48.28;12.77;101822.66;5052590;28;20190;-64
2022/08/13 08:50:17;;;;;;;2.90;2.70;;;41.40;21.20;;;48.60;11.95;101828.91;5052874;28;20178;-64
2022/08/13 08:56:04;;;;;;;2.22;2.13;;;42.00;20.00;;;49.21;10.98;101829.34;5056247;28;20197;-64
2022/08/13 08:58:41;;;;;;;2.30;2.20;;;42.30;19.30;;;49.33;11.04;101828.84;5056739;28;20273;-63
2022/08/13 09:01:12;;;;;;;2.10;2.00;;;42.60;18.80;;;49.55;11.05;101821.06;5070317;28;20207;-64
2022/08/13 09:03:42;;;;;;;5.00;2.72;;;42.80;19.20;;;49.82;11.52;101817.16;5056028;28;20255;-63
2022/08/13 09:06:28;;;;;;;2.80;2.17;;;43.00;19.10;;;50.21;10.92;101821.53;5056002;28;20269;-64
2022/08/13 09:09:17;;;;;;;3.50;2.75;;;43.30;18.90;;;50.42;10.52;101818.44;5055700;28;20198;-62
2022/08/13 09:11:48;;;;;;;2.47;2.28;;;43.50;18.40;;;50.55;9.97;101813.84;5055203;28;20221;-63
2022/08/13 09:14:26;;;;;;;3.40;2.42;;;43.70;18.20;;;50.83;10.36;101816.25;5055781;28;20190;-63
2022/08/13 09:16:56;;;;;;;3.78;2.28;;;43.90;18.00;;;50.90;9.40;101818.19;5055524;28;20197;-63
2022/08/13 09:19:25;;;;;;;3.38;2.33;;;44.00;17.40;;;50.94;10.29;101808.50;5055316;28;20190;-63
2022/08/13 09:22:17;;;;;;;6.18;2.55;;;44.10;17.30;;;51.04;10.06;101810.34;5055570;28;20221;-63
2022/08/13 09:24:53;;;;;;;3.05;2.55;;;44.20;16.90;;;51.02;9.89;101804.31;5035715;28;20191;-63
2022/08/13 09:27:20;;;;;;;2.45;2.15;;;44.20;17.10;;;51.01;10.34;101802.75;5035549;28;20190;-63
2022/08/13 09:29:50;;;;;;;3.85;2.58;;;44.20;17.40;;;51.34;9.40;101803.81;5035560;28;20191;-62
2022/08/13 09:32:29;;;;;;;3.10;2.80;;;44.30;17.30;;;51.53;9.83;101805.06;5033908;28;20244;-63
2022/08/13 09:35:01;;;;;;;2.60;2.40;;;44.40;17.40;;;51.80;10.10;101791.72;5035350;28;20186;-63
2022/08/13 09:37:31;;;;;;;2.38;2.22;;;44.50;17.70;;;52.07;9.87;101795.16;5035447;28;20241;-62
2022/08/13 09:40:23;;;;;;;2.60;2.20;;;44.60;17.50;;;52.15;9.04;101793.00;5055012;28;20201;-62
2022/08/13 09:43:18;;;;;;;4.00;3.50;;;44.80;17.30;;;51.99;9.28;101793.75;5055043;28;20209;-63
2022/08/13 09:46:07;;;;;;;3.17;2.97;;;44.90;17.00;;;51.96;9.58;101786.97;5055277;28;20190;-63
2022/08/13 09:48:37;;;;;;;2.97;2.75;;;44.90;17.10;;;51.91;9.12;101786.69;5055096;28;20545;-62
2022/08/13 09:51:13;;;;;;;5.30;4.45;;;44.80;17.00;;;51.88;9.01;101781.88;5054897;28;20193;-63
2022/08/13 09:54:02;;;;;;;3.90;3.60;;;44.80;17.00;;;52.09;9.54;101781.50;5055513;28;20268;-62
2022/08/13 09:56:37;;;;;;;2.85;2.65;;;44.90;17.30;;;52.26;9.04;101774.69;5049399;28;20260;-64
2022/08/13 09:59:05;;;;;;;2.80;2.60;;;45.00;17.10;;;52.14;9.22;101775.31;5048911;28;20190;-63
2022/08/13 10:01:42;;;;;;;2.95;2.47;;;45.00;16.60;;;51.65;9.77;101779.16;5051470;28;20697;-62
2022/08/13 10:04:26;;;;;;;4.88;2.90;;;45.00;16.60;;;51.41;10.01;101778.38;5049551;28;20276;-62
2022/08/13 10:06:56;;;;;;;2.67;2.55;;;44.90;16.50;;;51.14;9.81;101777.66;5055071;28;20228;-63
2022/08/13 10:09:33;;;;;;;3.00;2.70;;;44.80;16.60;;;50.80;10.54;101766.59;5041462;28;20693;-64
2022/08/13 10:12:04;;;;;;;2.70;2.60;;;44.80;16.90;;;50.21;10.16;101776.66;5034476;28;20221;-62
2022/08/13 10:14:48;;;;;;;3.47;3.28;;;44.60;17.00;;;50.45;9.56;101759.47;5043908;28;20201;-64
2022/08/13 10:17:26;;;;;;;3.13;2.80;;;44.40;17.00;;;49.60;10.29;101759.75;5035010;28;20216;-64
2022/08/13 10:20:17;;;;;;;2.85;2.65;;;44.10;16.70;;;47.89;11.00;101749.31;5049264;28;20206;-63
2022/08/13 10:22:47;;;;;;;2.33;2.20;;;43.50;17.00;;;46.32;12.45;101741.28;5054476;28;20221;-63
2022/08/13 10:25:16;;;;;;;3.08;2.78;;;42.70;17.40;;;45.26;13.15;101748.25;5053538;28;20205;-63
2022/08/13 10:27:46;;;;;;;2.85;2.50;;;42.00;18.20;;;44.26;13.53;101745.63;5054234;28;20258;-64
2022/08/13 10:30:19;;;;;;;3.25;3.03;;;41.20;18.90;;;44.17;13.97;101739.56;5040915;28;20267;-62
2022/08/13 10:33:09;;;;;;;5.45;3.10;;;40.60;19.70;;;44.83;13.51;101736.75;5052841;28;20287;-62
2022/08/13 10:35:38;;;;;;;3.45;3.15;;;40.30;20.10;;;45.25;13.57;101736.31;5054553;28;20202;-62
2022/08/13 10:38:26;;;;;;;3.15;2.63;;;40.20;20.20;;;45.50;13.64;101730.94;5052215;28;20194;-61
2022/08/13 10:40:58;;;;;;;3.03;2.75;;;40.30;20.30;;;45.78;12.90;101733.91;5053873;28;20612;-64
2022/08/13 10:43:31;;;;;;;3.53;3.22;;;40.40;20.40;;;45.34;13.73;101727.63;5049578;28;20515;-63
2022/08/13 10:46:20;;;;;;;3.50;3.30;;;40.50;20.20;;;44.76;13.59;101719.97;5053257;28;20244;-63
2022/08/13 10:48:55;;;;;;;4.47;3.15;;;40.30;20.30;;;44.22;13.99;101722.56;5053860;28;20255;-62
2022/08/13 10:51:27;;;;;;;3.20;3.00;;;40.10;20.40;;;43.67;14.52;101711.06;5052063;28;20249;-63
2022/08/13 10:53:59;;;;;;;3.53;3.22;;;39.90;20.50;;;43.10;15.26;101712.16;5053711;28;20273;-63
2022/08/13 10:56:30;;;;;;;2.97;2.78;;;39.70;21.00;;;42.59;16.02;101721.13;5051537;28;20217;-63
2022/08/13 10:59:01;;;;;;;5.82;5.18;;;39.30;21.30;;;41.96;16.37;101715.88;5063476;28;20205;-62
2022/08/13 11:01:30;;;;;;;7.75;3.80;;;39.00;21.50;;;41.38;16.29;101719.69;5050604;28;20226;-63
2022/08/13 11:04:03;;;;;;;4.15;3.75;;;38.60;21.80;;;40.85;17.56;101719.09;5037268;28;20203;-63
2022/08/13 11:06:35;;;;;;;3.70;3.47;;;38.20;22.30;;;40.45;17.54;101710.94;5071899;28;20187;-64
2022/08/13 11:09:05;;;;;;;3.65;3.20;;;37.90;22.60;;;40.29;17.51;101707.31;5041287;28;20218;-63
2022/08/13 11:11:55;;;;;;;3.20;3.00;;;37.50;23.10;;;40.51;18.01;101703.19;5050606;28;20304;-63